sensor_id;sensor_type;location;lat;lon;timestamp;temperature;humidity
18950;DHT22;9608;49.288;8.130;2023-12-20T00:02:04;7.00;99.90
18950;DHT22;9608;49.288;8.130;2023-12-20T00:04:31;7.00;99.90
18950;DHT22;9608;49.288;8.130;2023-12-20T00:06:57;7.00;99.90
18950;DHT22;9608;49.288;8.130;2023-12-20T00:09:24;7.00;99.90
18950;DHT22;9608;49.288;8.130;2023-12-20T00:11:51;7.00;99.90
18950;DHT22;9608;49.288;8.130;2023-12-20T00:14:17;7.10;99.90
18950;DHT22;9608;49.288;8.130;2023-12-20T00:16:45;7.10;99.90
18950;DHT22;9608;49.288;8.130;2023-12-20T00:19:12;7.00;99.90
18950;DHT22;9608;49.288;8.130;2023-12-20T00:21:38;7.00;99.90
18950;DHT22;9608;49.288;8.130;2023-12-20T00:24:05;7.10;99.90
18950;DHT22;9608;49.288;8.130;2023-12-20T00:26:32;7.10;99.90
18950;DHT22;9608;49.288;8.130;2023-12-20T00:28:59;7.10;99.90
18950;DHT22;9608;49.288;8.130;2023-12-20T00:31:26;7.10;99.90
18950;DHT22;9608;49.288;8.130;2023-12-20T00:33:54;7.10;99.90
18950;DHT22;9608;49.288;8.130;2023-12-20T00:36:21;7.10;99.90
18950;DHT22;9608;49.288;8.130;2023-12-20T00:38:48;7.10;99.90
18950;DHT22;9608;49.288;8.130;2023-12-20T00:41:15;7.20;99.90
18950;DHT22;9608;49.288;8.130;2023-12-20T00:43:42;7.20;99.90
18950;DHT22;9608;49.288;8.130;2023-12-20T00:46:09;7.20;99.90
18950;DHT22;9608;49.288;8.130;2023-12-20T00:48:36;7.30;99.90
18950;DHT22;9608;49.288;8.130;2023-12-20T00:51:04;7.30;99.90
18950;DHT22;9608;49.288;8.130;2023-12-20T00:53:31;7.30;99.90
18950;DHT22;9608;49.288;8.130;2023-12-20T00:58:25;7.40;99.90
18950;DHT22;9608;49.288;8.130;2023-12-20T01:00:53;7.40;99.90
18950;DHT22;9608;49.288;8.130;2023-12-20T01:03:20;7.40;99.90
18950;DHT22;9608;49.288;8.130;2023-12-20T01:05:47;7.10;99.90
18950;DHT22;9608;49.288;8.130;2023-12-20T01:08:15;7.00;99.90
18950;DHT22;9608;49.288;8.130;2023-12-20T01:10:41;7.00;99.90
18950;DHT22;9608;49.288;8.130;2023-12-20T01:13:08;7.00;99.90
18950;DHT22;9608;49.288;8.130;2023-12-20T01:15:35;7.00;99.90
18950;DHT22;9608;49.288;8.130;2023-12-20T01:18:02;7.00;99.90
18950;DHT22;9608;49.288;8.130;2023-12-20T01:20:29;7.00;99.90
18950;DHT22;9608;49.288;8.130;2023-12-20T01:22:55;7.00;99.90
18950;DHT22;9608;49.288;8.130;2023-12-20T01:25:23;7.00;99.90
18950;DHT22;9608;49.288;8.130;2023-12-20T01:27:50;7.00;99.90
18950;DHT22;9608;49.288;8.130;2023-12-20T01:30:17;7.00;99.90
18950;DHT22;9608;49.288;8.130;2023-12-20T01:32:43;7.10;99.90
18950;DHT22;9608;49.288;8.130;2023-12-20T01:35:10;7.10;99.90
18950;DHT22;9608;49.288;8.130;2023-12-20T01:37:38;6.90;99.90
18950;DHT22;9608;49.288;8.130;2023-12-20T01:40:04;6.80;99.90
18950;DHT22;9608;49.288;8.130;2023-12-20T01:42:32;6.90;99.90
18950;DHT22;9608;49.288;8.130;2023-12-20T01:44:59;6.90;99.90
18950;DHT22;9608;49.288;8.130;2023-12-20T01:47:26;7.00;99.90
18950;DHT22;9608;49.288;8.130;2023-12-20T01:49:52;7.00;99.90
18950;DHT22;9608;49.288;8.130;2023-12-20T01:52:20;6.90;99.90
18950;DHT22;9608;49.288;8.130;2023-12-20T01:54:47;6.90;99.90
18950;DHT22;9608;49.288;8.130;2023-12-20T01:57:14;6.80;99.90
18950;DHT22;9608;49.288;8.130;2023-12-20T01:59:43;6.80;99.90
18950;DHT22;9608;49.288;8.130;2023-12-20T02:02:10;6.80;99.90
18950;DHT22;9608;49.288;8.130;2023-12-20T02:04:38;6.80;99.90
18950;DHT22;9608;49.288;8.130;2023-12-20T02:07:05;6.90;99.90
18950;DHT22;9608;49.288;8.130;2023-12-20T02:09:33;6.90;99.90
18950;DHT22;9608;49.288;8.130;2023-12-20T02:12:00;6.90;99.90
18950;DHT22;9608;49.288;8.130;2023-12-20T02:14:27;6.90;99.90
18950;DHT22;9608;49.288;8.130;2023-12-20T02:16:55;6.80;99.90
18950;DHT22;9608;49.288;8.130;2023-12-20T02:19:21;6.80;99.90
18950;DHT22;9608;49.288;8.130;2023-12-20T02:21:49;6.90;99.90
18950;DHT22;9608;49.288;8.130;2023-12-20T02:24:16;7.00;99.90
18950;DHT22;9608;49.288;8.130;2023-12-20T02:26:44;7.00;99.90
18950;DHT22;9608;49.288;8.130;2023-12-20T02:29:10;7.00;99.90
18950;DHT22;9608;49.288;8.130;2023-12-20T02:31:37;6.90;99.90
18950;DHT22;9608;49.288;8.130;2023-12-20T02:34:04;7.00;99.90
18950;DHT22;9608;49.288;8.130;2023-12-20T02:36:30;7.00;99.90
18950;DHT22;9608;49.288;8.130;2023-12-20T02:38:58;7.00;99.90
18950;DHT22;9608;49.288;8.130;2023-12-20T02:41:25;7.00;99.90
18950;DHT22;9608;49.288;8.130;2023-12-20T02:43:52;6.90;99.90
18950;DHT22;9608;49.288;8.130;2023-12-20T02:46:18;6.90;99.90
18950;DHT22;9608;49.288;8.130;2023-12-20T02:48:45;6.90;99.90
18950;DHT22;9608;49.288;8.130;2023-12-20T02:51:12;6.90;99.90
18950;DHT22;9608;49.288;8.130;2023-12-20T02:53:39;7.00;99.90
18950;DHT22;9608;49.288;8.130;2023-12-20T02:56:07;7.00;99.90
18950;DHT22;9608;49.288;8.130;2023-12-20T02:58:34;7.00;99.90
18950;DHT22;9608;49.288;8.130;2023-12-20T03:01:00;7.10;99.90
18950;DHT22;9608;49.288;8.130;2023-12-20T03:03:27;7.10;99.90
18950;DHT22;9608;49.288;8.130;2023-12-20T03:05:53;7.00;99.90
18950;DHT22;9608;49.288;8.130;2023-12-20T03:08:19;7.00;99.90
18950;DHT22;9608;49.288;8.130;2023-12-20T03:10:46;7.00;99.90
18950;DHT22;9608;49.288;8.130;2023-12-20T03:13:14;7.00;99.90
18950;DHT22;9608;49.288;8.130;2023-12-20T03:15:41;7.00;99.90
18950;DHT22;9608;49.288;8.130;2023-12-20T03:18:07;7.00;99.90
18950;DHT22;9608;49.288;8.130;2023-12-20T03:20:34;7.10;99.90
18950;DHT22;9608;49.288;8.130;2023-12-20T03:23:01;7.10;99.90
18950;DHT22;9608;49.288;8.130;2023-12-20T03:25:27;7.20;99.90
18950;DHT22;9608;49.288;8.130;2023-12-20T03:27:54;7.20;99.90
18950;DHT22;9608;49.288;8.130;2023-12-20T03:30:22;7.20;99.90
18950;DHT22;9608;49.288;8.130;2023-12-20T03:32:49;7.20;99.90
18950;DHT22;9608;49.288;8.130;2023-12-20T03:35:15;7.30;99.90
18950;DHT22;9608;49.288;8.130;2023-12-20T03:37:42;7.30;99.90
18950;DHT22;9608;49.288;8.130;2023-12-20T03:40:10;7.30;99.90
18950;DHT22;9608;49.288;8.130;2023-12-20T03:42:36;7.30;99.90
18950;DHT22;9608;49.288;8.130;2023-12-20T03:45:04;7.20;99.90
18950;DHT22;9608;49.288;8.130;2023-12-20T03:47:32;7.10;99.90
18950;DHT22;9608;49.288;8.130;2023-12-20T03:49:58;7.00;99.90
18950;DHT22;9608;49.288;8.130;2023-12-20T03:52:25;6.90;99.90
18950;DHT22;9608;49.288;8.130;2023-12-20T03:54:52;6.90;99.90
18950;DHT22;9608;49.288;8.130;2023-12-20T03:57:18;6.90;99.90
18950;DHT22;9608;49.288;8.130;2023-12-20T03:59:45;6.90;99.90
18950;DHT22;9608;49.288;8.130;2023-12-20T04:02:12;6.90;99.90
18950;DHT22;9608;49.288;8.130;2023-12-20T04:04:40;6.90;99.90
18950;DHT22;9608;49.288;8.130;2023-12-20T04:07:07;6.80;99.90
18950;DHT22;9608;49.288;8.130;2023-12-20T04:09:34;6.80;99.90
18950;DHT22;9608;49.288;8.130;2023-12-20T04:12:00;6.80;99.90
18950;DHT22;9608;49.288;8.130;2023-12-20T04:14:27;6.80;99.90
18950;DHT22;9608;49.288;8.130;2023-12-20T04:16:54;6.70;99.90
18950;DHT22;9608;49.288;8.130;2023-12-20T04:19:20;6.70;99.90
18950;DHT22;9608;49.288;8.130;2023-12-20T04:21:48;6.80;99.90
18950;DHT22;9608;49.288;8.130;2023-12-20T04:24:15;6.80;99.90
18950;DHT22;9608;49.288;8.130;2023-12-20T04:26:42;6.80;99.90
18950;DHT22;9608;49.288;8.130;2023-12-20T04:29:09;6.80;99.90
18950;DHT22;9608;49.288;8.130;2023-12-20T04:31:36;6.80;99.90
18950;DHT22;9608;49.288;8.130;2023-12-20T04:34:02;6.80;99.90
18950;DHT22;9608;49.288;8.130;2023-12-20T04:36:29;6.90;99.90
18950;DHT22;9608;49.288;8.130;2023-12-20T04:38:57;6.80;99.90
18950;DHT22;9608;49.288;8.130;2023-12-20T04:41:25;6.80;99.90
18950;DHT22;9608;49.288;8.130;2023-12-20T04:43:53;6.90;99.90
18950;DHT22;9608;49.288;8.130;2023-12-20T04:46:19;6.90;99.90
18950;DHT22;9608;49.288;8.130;2023-12-20T04:48:46;6.90;99.90
18950;DHT22;9608;49.288;8.130;2023-12-20T04:51:13;6.90;99.90
18950;DHT22;9608;49.288;8.130;2023-12-20T04:53:40;6.80;99.90
18950;DHT22;9608;49.288;8.130;2023-12-20T04:56:08;6.90;99.90
18950;DHT22;9608;49.288;8.130;2023-12-20T04:58:35;6.90;99.90
18950;DHT22;9608;49.288;8.130;2023-12-20T05:01:01;6.90;99.90
18950;DHT22;9608;49.288;8.130;2023-12-20T05:03:28;6.90;99.90
18950;DHT22;9608;49.288;8.130;2023-12-20T05:05:55;6.80;99.90
18950;DHT22;9608;49.288;8.130;2023-12-20T05:08:22;6.90;99.90
18950;DHT22;9608;49.288;8.130;2023-12-20T05:10:48;6.90;99.90
18950;DHT22;9608;49.288;8.130;2023-12-20T05:13:17;7.00;99.90
18950;DHT22;9608;49.288;8.130;2023-12-20T05:15:43;7.00;99.90
18950;DHT22;9608;49.288;8.130;2023-12-20T05:18:10;7.00;99.90
18950;DHT22;9608;49.288;8.130;2023-12-20T05:20:36;7.10;99.90
18950;DHT22;9608;49.288;8.130;2023-12-20T05:23:03;7.00;99.90
18950;DHT22;9608;49.288;8.130;2023-12-20T05:25:30;7.00;99.90
18950;DHT22;9608;49.288;8.130;2023-12-20T05:27:57;7.00;99.90
18950;DHT22;9608;49.288;8.130;2023-12-20T05:30:25;7.10;99.90
18950;DHT22;9608;49.288;8.130;2023-12-20T05:32:52;7.10;99.90
18950;DHT22;9608;49.288;8.130;2023-12-20T05:35:19;7.10;99.90
18950;DHT22;9608;49.288;8.130;2023-12-20T05:37:45;7.20;99.90
18950;DHT22;9608;49.288;8.130;2023-12-20T05:40:12;7.10;99.90
18950;DHT22;9608;49.288;8.130;2023-12-20T05:42:39;7.00;99.90
18950;DHT22;9608;49.288;8.130;2023-12-20T05:45:06;7.00;99.90
18950;DHT22;9608;49.288;8.130;2023-12-20T05:47:34;7.00;99.90
18950;DHT22;9608;49.288;8.130;2023-12-20T05:50:01;7.00;99.90
18950;DHT22;9608;49.288;8.130;2023-12-20T05:52:29;7.00;99.90
18950;DHT22;9608;49.288;8.130;2023-12-20T05:54:56;6.90;99.90
18950;DHT22;9608;49.288;8.130;2023-12-20T05:57:23;6.90;99.90
18950;DHT22;9608;49.288;8.130;2023-12-20T05:59:50;6.90;99.90
18950;DHT22;9608;49.288;8.130;2023-12-20T06:02:16;6.80;99.90
18950;DHT22;9608;49.288;8.130;2023-12-20T06:04:44;6.70;99.90
18950;DHT22;9608;49.288;8.130;2023-12-20T06:07:12;6.70;99.90
18950;DHT22;9608;49.288;8.130;2023-12-20T06:09:39;6.70;99.90
18950;DHT22;9608;49.288;8.130;2023-12-20T06:12:06;6.70;99.90
18950;DHT22;9608;49.288;8.130;2023-12-20T06:14:33;6.70;99.90
18950;DHT22;9608;49.288;8.130;2023-12-20T06:17:00;6.70;99.90
18950;DHT22;9608;49.288;8.130;2023-12-20T06:19:27;6.70;99.90
18950;DHT22;9608;49.288;8.130;2023-12-20T06:21:55;6.60;99.90
18950;DHT22;9608;49.288;8.130;2023-12-20T06:24:22;6.60;99.90
18950;DHT22;9608;49.288;8.130;2023-12-20T06:26:52;6.60;99.90
18950;DHT22;9608;49.288;8.130;2023-12-20T06:29:19;6.70;99.90
18950;DHT22;9608;49.288;8.130;2023-12-20T06:31:46;6.80;99.90
18950;DHT22;9608;49.288;8.130;2023-12-20T06:34:12;6.90;99.90
18950;DHT22;9608;49.288;8.130;2023-12-20T06:36:39;7.00;99.90
18950;DHT22;9608;49.288;8.130;2023-12-20T06:39:07;7.00;99.90
18950;DHT22;9608;49.288;8.130;2023-12-20T06:41:34;7.00;99.90
18950;DHT22;9608;49.288;8.130;2023-12-20T06:44:00;7.00;99.90
18950;DHT22;9608;49.288;8.130;2023-12-20T06:46:27;7.00;99.90
18950;DHT22;9608;49.288;8.130;2023-12-20T06:48:54;7.00;99.90
18950;DHT22;9608;49.288;8.130;2023-12-20T06:51:21;7.00;99.90
18950;DHT22;9608;49.288;8.130;2023-12-20T06:53:50;7.00;99.90
18950;DHT22;9608;49.288;8.130;2023-12-20T06:56:19;7.00;99.90
18950;DHT22;9608;49.288;8.130;2023-12-20T06:58:45;7.00;99.90
18950;DHT22;9608;49.288;8.130;2023-12-20T07:01:12;6.90;99.90
18950;DHT22;9608;49.288;8.130;2023-12-20T07:03:40;6.60;99.90
18950;DHT22;9608;49.288;8.130;2023-12-20T07:06:10;6.30;99.90
18950;DHT22;9608;49.288;8.130;2023-12-20T07:08:37;6.10;99.90
18950;DHT22;9608;49.288;8.130;2023-12-20T07:11:05;6.00;99.90
18950;DHT22;9608;49.288;8.130;2023-12-20T07:13:35;6.00;99.90
18950;DHT22;9608;49.288;8.130;2023-12-20T07:16:02;5.70;99.90
18950;DHT22;9608;49.288;8.130;2023-12-20T07:18:29;5.70;99.90
18950;DHT22;9608;49.288;8.130;2023-12-20T07:20:56;5.60;99.90
18950;DHT22;9608;49.288;8.130;2023-12-20T07:23:23;5.50;99.90
18950;DHT22;9608;49.288;8.130;2023-12-20T07:25:52;5.50;99.90
18950;DHT22;9608;49.288;8.130;2023-12-20T07:28:21;5.40;99.90
18950;DHT22;9608;49.288;8.130;2023-12-20T07:30:51;5.40;99.90
18950;DHT22;9608;49.288;8.130;2023-12-20T07:33:18;5.30;99.90
18950;DHT22;9608;49.288;8.130;2023-12-20T07:35:46;5.30;99.90
18950;DHT22;9608;49.288;8.130;2023-12-20T07:38:13;5.20;99.90
18950;DHT22;9608;49.288;8.130;2023-12-20T07:40:40;5.10;99.90
18950;DHT22;9608;49.288;8.130;2023-12-20T07:43:07;5.10;99.90
18950;DHT22;9608;49.288;8.130;2023-12-20T07:45:34;5.00;99.90
18950;DHT22;9608;49.288;8.130;2023-12-20T07:48:04;5.10;99.90
18950;DHT22;9608;49.288;8.130;2023-12-20T07:50:32;5.10;99.90
18950;DHT22;9608;49.288;8.130;2023-12-20T07:52:59;5.10;99.90
18950;DHT22;9608;49.288;8.130;2023-12-20T07:55:27;5.20;99.90
18950;DHT22;9608;49.288;8.130;2023-12-20T07:57:55;5.20;99.90
18950;DHT22;9608;49.288;8.130;2023-12-20T08:00:23;5.20;99.90
18950;DHT22;9608;49.288;8.130;2023-12-20T08:02:51;5.20;99.90
18950;DHT22;9608;49.288;8.130;2023-12-20T08:05:20;5.20;99.90
18950;DHT22;9608;49.288;8.130;2023-12-20T08:07:47;5.20;99.90
18950;DHT22;9608;49.288;8.130;2023-12-20T08:10:15;5.20;99.90
18950;DHT22;9608;49.288;8.130;2023-12-20T08:12:43;5.20;99.90
18950;DHT22;9608;49.288;8.130;2023-12-20T08:15:11;5.30;99.90
18950;DHT22;9608;49.288;8.130;2023-12-20T08:17:38;5.30;99.90
18950;DHT22;9608;49.288;8.130;2023-12-20T08:20:07;5.40;99.90
18950;DHT22;9608;49.288;8.130;2023-12-20T08:22:37;5.60;99.90
18950;DHT22;9608;49.288;8.130;2023-12-20T08:25:05;5.60;99.90
18950;DHT22;9608;49.288;8.130;2023-12-20T08:27:32;5.60;99.90
18950;DHT22;9608;49.288;8.130;2023-12-20T08:30:00;5.60;99.90
18950;DHT22;9608;49.288;8.130;2023-12-20T08:32:31;5.70;99.90
18950;DHT22;9608;49.288;8.130;2023-12-20T08:35:00;5.70;99.90
18950;DHT22;9608;49.288;8.130;2023-12-20T08:37:27;5.80;99.90
18950;DHT22;9608;49.288;8.130;2023-12-20T08:39:56;5.90;99.90
18950;DHT22;9608;49.288;8.130;2023-12-20T08:42:23;5.90;99.90
18950;DHT22;9608;49.288;8.130;2023-12-20T08:44:56;5.80;99.90
18950;DHT22;9608;49.288;8.130;2023-12-20T08:47:24;5.70;99.90
18950;DHT22;9608;49.288;8.130;2023-12-20T08:49:52;5.70;99.90
18950;DHT22;9608;49.288;8.130;2023-12-20T08:52:22;5.80;99.90
18950;DHT22;9608;49.288;8.130;2023-12-20T08:54:52;5.70;99.90
18950;DHT22;9608;49.288;8.130;2023-12-20T08:57:36;5.60;99.90
18950;DHT22;9608;49.288;8.130;2023-12-20T09:00:07;5.80;99.90
18950;DHT22;9608;49.288;8.130;2023-12-20T09:02:37;5.80;99.90
18950;DHT22;9608;49.288;8.130;2023-12-20T09:05:06;5.90;99.90
18950;DHT22;9608;49.288;8.130;2023-12-20T09:07:34;6.00;99.90
18950;DHT22;9608;49.288;8.130;2023-12-20T09:10:05;6.00;99.90
18950;DHT22;9608;49.288;8.130;2023-12-20T09:12:42;6.20;99.90
18950;DHT22;9608;49.288;8.130;2023-12-20T09:15:14;6.40;99.90
18950;DHT22;9608;49.288;8.130;2023-12-20T09:17:42;6.50;99.90
18950;DHT22;9608;49.288;8.130;2023-12-20T09:20:12;6.60;99.90
18950;DHT22;9608;49.288;8.130;2023-12-20T09:22:41;6.80;99.90
18950;DHT22;9608;49.288;8.130;2023-12-20T09:25:10;6.90;99.90
18950;DHT22;9608;49.288;8.130;2023-12-20T09:27:45;7.10;99.90
18950;DHT22;9608;49.288;8.130;2023-12-20T09:30:20;7.00;99.90
18950;DHT22;9608;49.288;8.130;2023-12-20T09:33:07;7.10;99.90
18950;DHT22;9608;49.288;8.130;2023-12-20T09:35:37;7.20;99.90
18950;DHT22;9608;49.288;8.130;2023-12-20T09:38:07;7.10;99.90
18950;DHT22;9608;49.288;8.130;2023-12-20T09:40:37;7.10;99.90
18950;DHT22;9608;49.288;8.130;2023-12-20T09:43:18;7.20;99.90
18950;DHT22;9608;49.288;8.130;2023-12-20T09:45:49;7.10;99.90
18950;DHT22;9608;49.288;8.130;2023-12-20T09:48:22;7.00;99.90
18950;DHT22;9608;49.288;8.130;2023-12-20T09:50:51;7.00;99.90
18950;DHT22;9608;49.288;8.130;2023-12-20T09:53:24;7.00;99.90
18950;DHT22;9608;49.288;8.130;2023-12-20T09:55:58;7.00;99.90
18950;DHT22;9608;49.288;8.130;2023-12-20T09:58:31;7.00;99.90
18950;DHT22;9608;49.288;8.130;2023-12-20T10:00:58;6.90;99.90
18950;DHT22;9608;49.288;8.130;2023-12-20T10:03:29;6.90;99.90
18950;DHT22;9608;49.288;8.130;2023-12-20T10:06:00;6.60;99.90
18950;DHT22;9608;49.288;8.130;2023-12-20T10:08:33;6.80;99.90
18950;DHT22;9608;49.288;8.130;2023-12-20T10:11:01;7.00;99.90
18950;DHT22;9608;49.288;8.130;2023-12-20T10:13:44;7.10;99.90
18950;DHT22;9608;49.288;8.130;2023-12-20T10:16:18;7.20;99.90
18950;DHT22;9608;49.288;8.130;2023-12-20T10:18:52;7.50;99.90
18950;DHT22;9608;49.288;8.130;2023-12-20T10:21:20;7.50;99.90
18950;DHT22;9608;49.288;8.130;2023-12-20T10:23:48;7.40;99.90
18950;DHT22;9608;49.288;8.130;2023-12-20T10:26:19;7.30;99.90
18950;DHT22;9608;49.288;8.130;2023-12-20T10:28:53;7.40;99.90
18950;DHT22;9608;49.288;8.130;2023-12-20T10:31:28;7.30;99.90
18950;DHT22;9608;49.288;8.130;2023-12-20T10:33:57;7.30;99.90
18950;DHT22;9608;49.288;8.130;2023-12-20T10:36:25;7.40;99.90
18950;DHT22;9608;49.288;8.130;2023-12-20T10:38:54;7.50;99.90
18950;DHT22;9608;49.288;8.130;2023-12-20T10:41:25;7.50;99.90
18950;DHT22;9608;49.288;8.130;2023-12-20T10:43:56;7.70;99.90
18950;DHT22;9608;49.288;8.130;2023-12-20T10:46:26;7.60;99.90
18950;DHT22;9608;49.288;8.130;2023-12-20T10:48:54;7.50;99.90
18950;DHT22;9608;49.288;8.130;2023-12-20T10:51:23;7.50;99.90
18950;DHT22;9608;49.288;8.130;2023-12-20T10:53:54;7.60;99.90
18950;DHT22;9608;49.288;8.130;2023-12-20T10:56:22;7.60;99.90
18950;DHT22;9608;49.288;8.130;2023-12-20T10:58:50;7.60;99.90
18950;DHT22;9608;49.288;8.130;2023-12-20T11:01:22;7.60;99.90
18950;DHT22;9608;49.288;8.130;2023-12-20T11:03:51;7.30;99.90
18950;DHT22;9608;49.288;8.130;2023-12-20T11:06:27;7.20;99.90
18950;DHT22;9608;49.288;8.130;2023-12-20T11:09:03;7.50;99.90
18950;DHT22;9608;49.288;8.130;2023-12-20T11:11:44;7.70;99.90
18950;DHT22;9608;49.288;8.130;2023-12-20T11:14:18;7.80;99.90
18950;DHT22;9608;49.288;8.130;2023-12-20T11:16:48;7.70;99.90
18950;DHT22;9608;49.288;8.130;2023-12-20T11:19:17;7.70;99.90
18950;DHT22;9608;49.288;8.130;2023-12-20T11:21:46;7.60;99.90
18950;DHT22;9608;49.288;8.130;2023-12-20T11:24:16;7.70;99.90
18950;DHT22;9608;49.288;8.130;2023-12-20T11:26:47;7.50;99.90
18950;DHT22;9608;49.288;8.130;2023-12-20T11:29:33;7.40;99.90
18950;DHT22;9608;49.288;8.130;2023-12-20T11:32:29;7.50;99.90
18950;DHT22;9608;49.288;8.130;2023-12-20T11:34:59;7.40;99.90
18950;DHT22;9608;49.288;8.130;2023-12-20T11:37:30;7.10;99.90
18950;DHT22;9608;49.288;8.130;2023-12-20T11:40:02;7.10;99.90
18950;DHT22;9608;49.288;8.130;2023-12-20T11:42:32;7.10;99.90
18950;DHT22;9608;49.288;8.130;2023-12-20T11:45:01;7.10;99.90
18950;DHT22;9608;49.288;8.130;2023-12-20T11:47:31;7.10;99.90
18950;DHT22;9608;49.288;8.130;2023-12-20T11:49:57;7.10;99.90
18950;DHT22;9608;49.288;8.130;2023-12-20T11:52:26;7.10;99.90
18950;DHT22;9608;49.288;8.130;2023-12-20T11:54:52;7.20;99.90
18950;DHT22;9608;49.288;8.130;2023-12-20T11:57:19;7.30;99.90
18950;DHT22;9608;49.288;8.130;2023-12-20T11:59:46;7.40;99.90
18950;DHT22;9608;49.288;8.130;2023-12-20T12:02:13;7.40;99.90
18950;DHT22;9608;49.288;8.130;2023-12-20T12:04:43;7.30;99.90
18950;DHT22;9608;49.288;8.130;2023-12-20T12:07:10;7.50;99.90
18950;DHT22;9608;49.288;8.130;2023-12-20T12:09:37;7.40;99.90
18950;DHT22;9608;49.288;8.130;2023-12-20T12:12:05;7.30;99.90
18950;DHT22;9608;49.288;8.130;2023-12-20T12:14:33;7.30;99.90
18950;DHT22;9608;49.288;8.130;2023-12-20T12:17:02;7.40;99.90
18950;DHT22;9608;49.288;8.130;2023-12-20T12:19:30;7.60;99.90
18950;DHT22;9608;49.288;8.130;2023-12-20T12:22:14;7.80;99.90
18950;DHT22;9608;49.288;8.130;2023-12-20T12:24:44;7.80;99.90
18950;DHT22;9608;49.288;8.130;2023-12-20T12:27:12;7.80;99.90
18950;DHT22;9608;49.288;8.130;2023-12-20T12:29:39;7.80;99.90
18950;DHT22;9608;49.288;8.130;2023-12-20T12:32:06;7.80;99.90
18950;DHT22;9608;49.288;8.130;2023-12-20T12:34:33;7.90;99.90
18950;DHT22;9608;49.288;8.130;2023-12-20T12:37:00;7.80;99.90
18950;DHT22;9608;49.288;8.130;2023-12-20T12:39:29;7.70;99.90
18950;DHT22;9608;49.288;8.130;2023-12-20T12:41:56;7.60;99.90
18950;DHT22;9608;49.288;8.130;2023-12-20T12:44:23;7.50;99.90
18950;DHT22;9608;49.288;8.130;2023-12-20T12:46:51;7.60;99.90
18950;DHT22;9608;49.288;8.130;2023-12-20T12:49:19;7.70;99.90
18950;DHT22;9608;49.288;8.130;2023-12-20T12:51:46;7.70;99.90
18950;DHT22;9608;49.288;8.130;2023-12-20T12:54:13;7.50;99.90
18950;DHT22;9608;49.288;8.130;2023-12-20T12:56:43;7.50;99.90
18950;DHT22;9608;49.288;8.130;2023-12-20T12:59:10;7.50;99.90
18950;DHT22;9608;49.288;8.130;2023-12-20T13:01:37;7.30;99.90
18950;DHT22;9608;49.288;8.130;2023-12-20T13:04:04;7.30;99.90
18950;DHT22;9608;49.288;8.130;2023-12-20T13:06:35;7.40;99.90
18950;DHT22;9608;49.288;8.130;2023-12-20T13:09:02;7.60;99.90
18950;DHT22;9608;49.288;8.130;2023-12-20T13:11:30;7.70;99.90
18950;DHT22;9608;49.288;8.130;2023-12-20T13:13:58;7.70;99.90
18950;DHT22;9608;49.288;8.130;2023-12-20T13:16:25;7.60;99.90
18950;DHT22;9608;49.288;8.130;2023-12-20T13:18:52;7.60;99.90
18950;DHT22;9608;49.288;8.130;2023-12-20T13:21:18;7.60;99.90
18950;DHT22;9608;49.288;8.130;2023-12-20T13:23:45;7.70;99.90
18950;DHT22;9608;49.288;8.130;2023-12-20T13:26:12;7.70;99.90
18950;DHT22;9608;49.288;8.130;2023-12-20T13:28:39;7.50;99.90
18950;DHT22;9608;49.288;8.130;2023-12-20T13:31:07;7.40;99.90
18950;DHT22;9608;49.288;8.130;2023-12-20T13:33:33;7.20;99.90
18950;DHT22;9608;49.288;8.130;2023-12-20T13:36:00;7.00;99.90
18950;DHT22;9608;49.288;8.130;2023-12-20T13:38:27;6.90;99.90
18950;DHT22;9608;49.288;8.130;2023-12-20T13:40:53;6.70;99.90
18950;DHT22;9608;49.288;8.130;2023-12-20T13:43:20;6.60;99.90
18950;DHT22;9608;49.288;8.130;2023-12-20T13:45:47;6.60;99.90
18950;DHT22;9608;49.288;8.130;2023-12-20T13:48:15;6.60;99.90
18950;DHT22;9608;49.288;8.130;2023-12-20T13:50:42;6.50;99.90
18950;DHT22;9608;49.288;8.130;2023-12-20T13:53:09;6.50;99.90
18950;DHT22;9608;49.288;8.130;2023-12-20T13:55:35;6.60;99.90
18950;DHT22;9608;49.288;8.130;2023-12-20T13:58:02;6.60;99.90
18950;DHT22;9608;49.288;8.130;2023-12-20T14:00:29;6.60;99.90
18950;DHT22;9608;49.288;8.130;2023-12-20T14:02:55;6.60;99.90
18950;DHT22;9608;49.288;8.130;2023-12-20T14:05:24;6.60;99.90
18950;DHT22;9608;49.288;8.130;2023-12-20T14:07:52;6.50;99.90
18950;DHT22;9608;49.288;8.130;2023-12-20T14:10:18;6.60;99.90
18950;DHT22;9608;49.288;8.130;2023-12-20T14:12:45;6.60;99.90
18950;DHT22;9608;49.288;8.130;2023-12-20T14:15:12;6.50;99.90
18950;DHT22;9608;49.288;8.130;2023-12-20T14:17:39;6.50;99.90
18950;DHT22;9608;49.288;8.130;2023-12-20T14:20:07;6.50;99.90
18950;DHT22;9608;49.288;8.130;2023-12-20T14:22:36;6.50;99.90
18950;DHT22;9608;49.288;8.130;2023-12-20T14:25:04;6.50;99.90
18950;DHT22;9608;49.288;8.130;2023-12-20T14:27:32;6.50;99.90
18950;DHT22;9608;49.288;8.130;2023-12-20T14:29:58;6.50;99.90
18950;DHT22;9608;49.288;8.130;2023-12-20T14:32:26;6.50;99.90
18950;DHT22;9608;49.288;8.130;2023-12-20T14:34:53;6.50;99.90
18950;DHT22;9608;49.288;8.130;2023-12-20T14:37:20;6.50;99.90
18950;DHT22;9608;49.288;8.130;2023-12-20T14:39:48;6.40;99.90
18950;DHT22;9608;49.288;8.130;2023-12-20T14:42:15;6.40;99.90
18950;DHT22;9608;49.288;8.130;2023-12-20T14:44:43;6.40;99.90
18950;DHT22;9608;49.288;8.130;2023-12-20T14:47:09;6.30;99.90
18950;DHT22;9608;49.288;8.130;2023-12-20T14:49:36;6.40;99.90
18950;DHT22;9608;49.288;8.130;2023-12-20T14:52:03;6.40;99.90
18950;DHT22;9608;49.288;8.130;2023-12-20T14:54:30;6.50;99.90
18950;DHT22;9608;49.288;8.130;2023-12-20T14:56:59;6.50;99.90
18950;DHT22;9608;49.288;8.130;2023-12-20T14:59:26;6.40;99.90
18950;DHT22;9608;49.288;8.130;2023-12-20T15:01:52;6.30;99.90
18950;DHT22;9608;49.288;8.130;2023-12-20T15:04:20;6.20;99.90
18950;DHT22;9608;49.288;8.130;2023-12-20T15:06:53;6.20;99.90
18950;DHT22;9608;49.288;8.130;2023-12-20T15:09:20;6.20;99.90
18950;DHT22;9608;49.288;8.130;2023-12-20T15:11:47;6.20;99.90
18950;DHT22;9608;49.288;8.130;2023-12-20T15:14:15;6.30;99.90
18950;DHT22;9608;49.288;8.130;2023-12-20T15:16:45;6.20;99.90
18950;DHT22;9608;49.288;8.130;2023-12-20T15:19:12;6.10;99.90
18950;DHT22;9608;49.288;8.130;2023-12-20T15:21:39;6.10;99.90
18950;DHT22;9608;49.288;8.130;2023-12-20T15:24:07;6.20;99.90
18950;DHT22;9608;49.288;8.130;2023-12-20T15:26:40;6.20;99.90
18950;DHT22;9608;49.288;8.130;2023-12-20T15:29:07;6.30;99.90
18950;DHT22;9608;49.288;8.130;2023-12-20T15:31:36;6.30;99.90
18950;DHT22;9608;49.288;8.130;2023-12-20T15:34:03;6.30;99.90
18950;DHT22;9608;49.288;8.130;2023-12-20T15:36:30;6.30;99.90
18950;DHT22;9608;49.288;8.130;2023-12-20T15:38:57;6.30;99.90
18950;DHT22;9608;49.288;8.130;2023-12-20T15:41:23;6.40;99.90
18950;DHT22;9608;49.288;8.130;2023-12-20T15:43:50;6.40;99.90
18950;DHT22;9608;49.288;8.130;2023-12-20T15:46:17;6.60;99.90
18950;DHT22;9608;49.288;8.130;2023-12-20T15:48:45;6.90;99.90
18950;DHT22;9608;49.288;8.130;2023-12-20T15:51:11;7.00;99.90
18950;DHT22;9608;49.288;8.130;2023-12-20T15:53:38;7.10;99.90
18950;DHT22;9608;49.288;8.130;2023-12-20T15:56:05;7.10;99.90
18950;DHT22;9608;49.288;8.130;2023-12-20T15:58:32;7.10;99.90
18950;DHT22;9608;49.288;8.130;2023-12-20T16:00:59;7.20;99.90
18950;DHT22;9608;49.288;8.130;2023-12-20T16:03:26;7.30;99.90
18950;DHT22;9608;49.288;8.130;2023-12-20T16:05:54;7.40;99.90
18950;DHT22;9608;49.288;8.130;2023-12-20T16:08:21;7.30;99.90
18950;DHT22;9608;49.288;8.130;2023-12-20T16:10:48;7.30;99.90